Time;durP1;ratioP1;P1;durP2;ratioP2;P2;SDS_P1;SDS_P2;PMS_P1;PMS_P2;Temp;Humidity;BMP_temperature;BMP_pressure;BME280_temperature;BME280_humidity;BME280_pressure;Samples;Min_cycle;Max_cycle;Signal;HPM_P1;HPM_P2
2022/04/10 00:00:53;;;;;;;7.50;3.50;;;;;;;15.18;33.66;101682.53;5036148;28;20029;-79
2022/04/10 00:03:19;;;;;;;8.48;3.22;;;;;;;15.14;33.55;101683.50;5036136;28;20040;-80
2022/04/10 00:05:46;;;;;;;9.45;3.20;;;;;;;14.97;33.74;101676.84;5036082;28;20021;-79
2022/04/10 00:08:12;;;;;;;6.35;3.30;;;;;;;14.91;33.72;101678.09;5036044;28;20029;-79
2022/04/10 00:10:37;;;;;;;7.20;3.08;;;;;;;14.89;33.54;101677.63;5035727;28;20055;-80
2022/04/10 00:13:03;;;;;;;10.20;3.50;;;;;;;14.98;33.40;101672.94;5036049;28;20551;-79
2022/04/10 00:15:29;;;;;;;6.03;2.83;;;;;;;14.92;33.57;101665.97;5034764;28;20121;-80
2022/04/10 00:17:54;;;;;;;8.75;3.40;;;;;;;14.86;33.35;101671.94;5035985;28;20021;-79
2022/04/10 00:20:20;;;;;;;6.60;3.00;;;;;;;14.81;33.23;101672.91;5034437;28;20025;-79
2022/04/10 00:22:48;;;;;;;20.20;5.10;;;;;;;14.76;33.26;101669.50;5035895;28;20040;-80
2022/04/10 00:25:16;;;;;;;7.28;3.20;;;;;;;14.80;33.30;101670.44;5035825;28;20451;-79
2022/04/10 00:27:43;;;;;;;4.97;2.38;;;;;;;14.84;33.06;101671.44;5035832;28;20048;-79
2022/04/10 00:30:10;;;;;;;14.13;3.65;;;;;;;14.72;33.31;101672.03;5034411;28;20095;-80
2022/04/10 00:32:36;;;;;;;7.53;3.10;;;;;;;14.74;33.11;101672.56;5035615;28;20064;-80
2022/04/10 00:35:03;;;;;;;4.97;3.35;;;;;;;14.64;33.30;101672.81;5035614;28;20061;-80
2022/04/10 00:37:28;;;;;;;7.28;3.05;;;;;;;14.66;33.09;101665.06;5035529;28;20484;-79
2022/04/10 00:39:54;;;;;;;8.95;2.80;;;;;;;14.57;33.28;101676.03;5035313;28;20037;-79
2022/04/10 00:42:20;;;;;;;8.10;3.38;;;;;;;14.56;33.10;101670.84;5035276;28;20048;-80
2022/04/10 00:44:47;;;;;;;10.18;3.20;;;;;;;14.61;33.13;101667.97;5035392;28;20033;-80
2022/04/10 00:47:13;;;;;;;6.00;2.90;;;;;;;14.50;33.23;101663.88;5035491;28;20090;-80
2022/04/10 00:49:39;;;;;;;8.55;3.40;;;;;;;14.43;33.15;101673.38;5033938;28;20021;-79
2022/04/10 00:52:09;;;;;;;6.28;2.78;;;;;;;14.48;33.13;101668.88;5035204;28;20057;-79
2022/04/10 00:54:35;;;;;;;5.57;3.53;;;;;;;14.44;33.02;101669.50;5035196;28;20030;-78
2022/04/10 00:57:02;;;;;;;6.50;3.05;;;;;;;14.50;33.16;101669.38;5033888;28;20032;-80
2022/04/10 00:59:31;;;;;;;6.72;3.75;;;;;;;14.44;33.05;101660.44;5033869;28;20041;-80
2022/04/10 01:01:56;;;;;;;7.03;2.95;;;;;;;14.38;33.19;101662.50;5035148;28;20048;-80
2022/04/10 01:04:22;;;;;;;8.68;3.45;;;;;;;14.39;33.05;101666.88;5034937;28;20025;-78
2022/04/10 01:06:49;;;;;;;9.13;3.38;;;;;;;14.35;33.21;101670.56;5034794;28;20075;-79
2022/04/10 01:09:15;;;;;;;5.70;2.65;;;;;;;14.35;33.20;101667.81;5034886;28;20026;-79
2022/04/10 01:11:41;;;;;;;9.98;2.83;;;;;;;14.34;33.16;101664.25;5034820;28;20030;-79
2022/04/10 01:14:08;;;;;;;9.23;3.90;;;;;;;14.23;33.26;101657.41;5034931;28;20377;-79
2022/04/10 01:16:34;;;;;;;9.60;3.15;;;;;;;14.19;33.22;101661.91;5033632;28;20491;-79
2022/04/10 01:19:04;;;;;;;30.42;6.47;;;;;;;14.18;33.35;101659.47;5034865;28;20033;-79
2022/04/10 01:21:33;;;;;;;7.43;3.35;;;;;;;14.16;33.01;101643.31;5034650;28;20025;-79
2022/04/10 01:23:59;;;;;;;4.10;2.40;;;;;;;14.08;33.28;101644.06;5034600;28;20029;-79
2022/04/10 01:26:26;;;;;;;7.97;2.88;;;;;;;13.98;33.24;101644.31;5034719;28;20104;-80
2022/04/10 01:29:06;;;;;;;8.43;3.28;;;;;;;13.89;33.31;101630.53;5034595;28;20025;-79
2022/04/10 01:31:33;;;;;;;7.80;2.67;;;;;;;13.96;33.25;101630.91;5033503;28;20026;-79
2022/04/10 01:34:01;;;;;;;7.00;2.95;;;;;;;14.00;33.23;101631.09;5033256;28;20032;-79
2022/04/10 01:36:29;;;;;;;10.63;3.03;;;;;;;14.00;33.09;101628.34;5033173;28;20186;-80
2022/04/10 01:38:57;;;;;;;6.28;2.58;;;;;;;13.85;33.22;101632.28;5034497;28;20029;-79
2022/04/10 01:41:26;;;;;;;5.85;2.70;;;;;;;13.68;33.04;101627.50;5034098;28;20041;-79
2022/04/10 01:43:53;;;;;;;5.22;2.45;;;;;;;13.52;33.25;101626.22;5033071;28;20033;-80
2022/04/10 01:46:21;;;;;;;4.93;2.67;;;;;;;13.50;33.09;101631.22;5034367;28;20033;-79
2022/04/10 01:48:47;;;;;;;6.45;2.88;;;;;;;13.45;33.35;101617.59;5034165;28;20123;-79
2022/04/10 01:51:13;;;;;;;10.25;3.10;;;;;;;13.43;33.52;101622.59;5034577;28;20065;-79
2022/04/10 01:53:41;;;;;;;5.28;2.65;;;;;;;13.43;33.34;101617.13;5034107;28;20464;-80
2022/04/10 01:56:08;;;;;;;5.97;2.33;;;;;;;13.47;33.26;101621.69;5034092;28;20029;-80
2022/04/10 01:58:39;;;;;;;6.50;2.75;;;;;;;13.44;33.44;101622.28;5033954;28;20034;-79
2022/04/10 02:01:09;;;;;;;8.52;2.63;;;;;;;13.43;33.38;101617.13;5033929;28;20036;-79
2022/04/10 02:03:35;;;;;;;5.90;2.80;;;;;;;13.41;33.36;101611.94;5034205;28;20151;-79
2022/04/10 02:06:02;;;;;;;7.18;2.63;;;;;;;13.33;33.37;101615.44;5033994;28;20654;-79
2022/04/10 02:08:28;;;;;;;6.65;3.00;;;;;;;13.35;33.35;101604.13;5033932;28;20399;-80
2022/04/10 02:10:54;;;;;;;6.55;3.40;;;;;;;13.25;33.44;101605.19;5033774;28;20029;-79
2022/04/10 02:13:20;;;;;;;6.00;3.45;;;;;;;13.25;33.50;101597.75;5032492;28;20036;-79
2022/04/10 02:15:46;;;;;;;9.27;4.13;;;;;;;13.37;33.31;101597.19;5033724;28;20029;-80
2022/04/10 02:18:12;;;;;;;5.13;3.10;;;;;;;13.37;33.55;101585.41;5032952;28;20079;-79
2022/04/10 02:20:38;;;;;;;10.50;4.43;;;;;;;13.36;33.52;101589.28;5032282;28;20025;-79
2022/04/10 02:23:04;;;;;;;5.93;3.80;;;;;;;13.33;33.63;101580.56;5032387;28;20064;-78
2022/04/10 02:25:29;;;;;;;7.57;3.10;;;;;;;13.34;33.63;101578.63;5033530;28;20029;-79
2022/04/10 02:27:55;;;;;;;8.45;3.65;;;;;;;13.31;33.63;101576.50;5033474;28;20043;-79
2022/04/10 02:30:20;;;;;;;6.32;3.35;;;;;;;13.29;33.79;101574.06;5033449;28;20396;-79
2022/04/10 02:32:46;;;;;;;5.65;3.72;;;;;;;13.19;33.70;101579.75;5032110;28;20116;-80
2022/04/10 02:35:12;;;;;;;8.65;3.67;;;;;;;13.10;33.88;101576.13;5033283;28;20472;-79
2022/04/10 02:37:38;;;;;;;7.32;3.30;;;;;;;13.12;33.93;101581.31;5033277;28;20025;-79
2022/04/10 02:40:05;;;;;;;5.95;3.53;;;;;;;13.09;33.88;101574.50;5033567;28;20026;-80
2022/04/10 02:42:33;;;;;;;6.13;3.03;;;;;;;13.08;33.66;101577.56;5033070;28;20041;-79
2022/04/10 02:45:03;;;;;;;6.05;3.85;;;;;;;13.13;33.67;101575.50;5031855;28;20026;-78
2022/04/10 02:47:30;;;;;;;5.90;3.08;;;;;;;13.13;33.81;101575.50;5033146;28;20151;-80
2022/04/10 02:49:56;;;;;;;15.23;3.95;;;;;;;13.09;33.71;101571.78;5028294;28;20064;-80
2022/04/10 02:52:22;;;;;;;7.15;3.33;;;;;;;13.00;33.96;101570.88;5033026;28;20469;-80
2022/04/10 02:54:48;;;;;;;9.55;3.30;;;;;;;12.95;34.08;101568.25;5031664;28;20491;-80
2022/04/10 02:57:13;;;;;;;6.72;3.33;;;;;;;12.95;33.97;101568.25;5031827;28;20017;-79
2022/04/10 02:59:40;;;;;;;6.80;3.30;;;;;;;12.96;33.94;101562.44;5032884;28;20056;-79
2022/04/10 03:02:05;;;;;;;6.93;3.03;;;;;;;13.06;33.97;101564.13;5031518;28;20029;-79
2022/04/10 03:04:31;;;;;;;11.93;5.05;;;;;;;13.06;33.99;101566.88;5032883;28;20030;-79
2022/04/10 03:06:56;;;;;;;6.25;2.92;;;;;;;13.00;34.04;101568.16;5031532;28;20488;-79
2022/04/10 03:09:22;;;;;;;5.13;2.90;;;;;;;12.93;34.18;101565.00;5031464;28;20099;-79
2022/04/10 03:11:48;;;;;;;5.25;2.25;;;;;;;12.92;34.07;101558.72;5032732;28;20529;-80
2022/04/10 03:14:13;;;;;;;6.20;2.80;;;;;;;12.90;34.26;101549.97;5031352;28;20423;-79
2022/04/10 03:16:40;;;;;;;6.38;3.08;;;;;;;12.82;34.43;101541.66;5032709;28;20022;-80
2022/04/10 03:19:09;;;;;;;5.68;2.67;;;;;;;12.83;34.21;101537.78;5032629;28;20540;-80
2022/04/10 03:21:34;;;;;;;6.45;3.00;;;;;;;12.78;34.27;101542.28;5032917;28;20025;-79
2022/04/10 03:24:01;;;;;;;9.40;3.28;;;;;;;12.69;34.24;101535.88;5032580;28;20124;-79
2022/04/10 03:26:28;;;;;;;8.90;2.97;;;;;;;12.70;34.42;101534.78;5032622;28;20052;-79
2022/04/10 03:28:54;;;;;;;4.25;2.28;;;;;;;12.68;34.16;101537.00;5032430;28;20032;-80
2022/04/10 03:31:20;;;;;;;7.15;2.80;;;;;;;12.65;34.00;101539.56;5032510;28;20028;-78
2022/04/10 03:33:47;;;;;;;6.15;2.45;;;;;;;12.66;34.08;101539.25;5032438;28;20059;-78
2022/04/10 03:36:13;;;;;;;3.92;2.40;;;;;;;12.66;34.32;101535.69;5032435;28;20033;-78
2022/04/10 03:38:39;;;;;;;4.93;3.17;;;;;;;12.65;34.03;101539.56;5032417;28;20036;-80
2022/04/10 03:41:05;;;;;;;6.43;3.38;;;;;;;12.69;34.13;101538.63;5032317;28;20033;-80
2022/04/10 03:43:32;;;;;;;3.58;2.55;;;;;;;12.78;34.25;101545.03;5032349;28;20512;-79
2022/04/10 03:45:58;;;;;;;9.30;3.33;;;;;;;12.86;34.25;101538.00;5032375;28;20033;-78
2022/04/10 03:48:24;;;;;;;5.80;3.05;;;;;;;12.94;34.29;101536.47;5032406;28;20424;-80
2022/04/10 03:50:50;;;;;;;5.93;3.40;;;;;;;12.99;34.17;101533.56;5031073;28;20411;-80
2022/04/10 03:53:16;;;;;;;6.32;2.45;;;;;;;13.05;34.42;101529.59;5031061;28;20036;-80
2022/04/10 03:55:42;;;;;;;7.90;3.08;;;;;;;13.10;34.33;101526.75;5032330;28;20435;-80
2022/04/10 03:58:08;;;;;;;5.18;2.80;;;;;;;13.14;34.62;101519.50;5031019;28;20029;-79
2022/04/10 04:00:33;;;;;;;3.83;2.30;;;;;;;13.19;34.39;101518.56;5030924;28;20036;-78
2022/04/10 04:02:59;;;;;;;8.10;2.97;;;;;;;13.21;34.35;101528.13;5032185;28;20037;-79
2022/04/10 04:05:25;;;;;;;6.07;3.00;;;;;;;13.24;34.39;101515.75;5030933;28;20038;-80
2022/04/10 04:07:50;;;;;;;5.35;2.78;;;;;;;13.33;34.24;101516.63;5032270;28;20033;-80
2022/04/10 04:10:16;;;;;;;4.38;2.83;;;;;;;13.33;34.50;101520.16;5030890;28;20191;-79
2022/04/10 04:12:42;;;;;;;5.68;3.45;;;;;;;13.41;34.47;101517.78;5032233;28;20033;-78
2022/04/10 04:15:08;;;;;;;7.40;2.90;;;;;;;13.46;34.57;101515.75;5030873;28;20395;-79
2022/04/10 04:17:33;;;;;;;4.80;3.00;;;;;;;13.55;34.74;101507.56;5030801;28;20496;-79
2022/04/10 04:19:59;;;;;;;5.72;2.67;;;;;;;13.62;34.93;101509.84;5031988;28;20025;-79
2022/04/10 04:22:24;;;;;;;7.07;2.70;;;;;;;13.70;34.63;101518.13;5030763;28;20030;-79
2022/04/10 04:24:50;;;;;;;6.07;2.63;;;;;;;13.76;34.78;101513.31;5032092;28;20427;-79
2022/04/10 04:27:15;;;;;;;5.40;2.20;;;;;;;13.84;34.83;101515.31;5032015;28;20052;-80
2022/04/10 04:29:41;;;;;;;7.20;2.97;;;;;;;13.83;35.07;101514.50;5031897;28;20104;-80
2022/04/10 04:32:07;;;;;;;6.40;2.75;;;;;;;13.95;34.95;101511.13;5030689;28;20076;-80
2022/04/10 04:34:33;;;;;;;5.80;3.35;;;;;;;14.02;34.92;101525.22;5031903;28;20036;-79
2022/04/10 04:36:58;;;;;;;10.10;2.70;;;;;;;14.04;34.86;101522.16;5031991;28;20033;-79
2022/04/10 04:39:24;;;;;;;8.57;2.13;;;;;;;14.14;35.04;101524.66;5031914;28;20033;-78
2022/04/10 04:41:50;;;;;;;4.05;2.08;;;;;;;14.22;34.87;101529.34;5034865;28;20053;-78
2022/04/10 04:44:16;;;;;;;3.67;2.05;;;;;;;14.27;35.01;101529.19;5034190;28;20163;-79
2022/04/10 04:46:42;;;;;;;7.72;2.97;;;;;;;14.34;35.01;101521.28;5034158;28;20175;-80
2022/04/10 04:49:08;;;;;;;8.77;4.00;;;;;;;14.35;34.96;101517.41;5035352;28;20041;-81
2022/04/10 04:51:36;;;;;;;7.90;2.60;;;;;;;14.36;34.93;101518.25;5035243;28;20096;-80
2022/04/10 04:54:02;;;;;;;5.20;2.25;;;;;;;14.40;34.86;101519.22;5033989;28;20506;-80
2022/04/10 04:56:28;;;;;;;4.40;2.53;;;;;;;14.42;34.93;101511.44;5033910;28;20069;-80
2022/04/10 04:58:53;;;;;;;7.57;2.25;;;;;;;14.43;34.90;101513.06;5035159;28;20163;-80
2022/04/10 05:01:19;;;;;;;6.38;2.55;;;;;;;14.48;34.89;101510.19;5035127;28;20392;-80
2022/04/10 05:03:44;;;;;;;6.30;2.42;;;;;;;14.52;34.62;101515.88;5034110;28;20594;-79
2022/04/10 05:06:10;;;;;;;5.20;3.45;;;;;;;14.51;34.69;101503.25;5034981;28;20434;-80
2022/04/10 05:08:36;;;;;;;10.30;3.25;;;;;;;14.54;34.55;101506.19;5035047;28;20508;-79
2022/04/10 05:11:02;;;;;;;8.07;2.55;;;;;;;14.69;34.63;101507.66;5034994;28;20048;-80
2022/04/10 05:13:27;;;;;;;11.82;2.28;;;;;;;14.71;34.67;101502.63;5033641;28;20396;-79
2022/04/10 05:15:53;;;;;;;9.52;2.83;;;;;;;14.69;34.69;101497.47;5033621;28;20025;-80
2022/04/10 05:18:20;;;;;;;6.40;1.63;;;;;;;14.70;34.86;101499.06;5034822;28;20029;-79
2022/04/10 05:20:46;;;;;;;9.57;4.35;;;;;;;14.74;34.93;101492.94;5033358;28;20033;-79
2022/04/10 05:23:16;;;;;;;8.73;2.35;;;;;;;14.85;35.13;101489.53;5034709;28;20029;-80
2022/04/10 05:25:42;;;;;;;6.07;1.70;;;;;;;14.80;34.92;101489.69;5034663;28;20032;-79
2022/04/10 05:28:08;;;;;;;5.80;2.08;;;;;;;14.87;35.31;101500.22;5033394;28;20029;-80
2022/04/10 05:30:33;;;;;;;5.65;1.73;;;;;;;14.88;35.21;101494.38;5033315;28;20456;-80
2022/04/10 05:33:00;;;;;;;5.22;3.33;;;;;;;14.96;35.20;101503.75;5034618;28;20101;-80
2022/04/10 05:35:25;;;;;;;4.80;2.28;;;;;;;14.92;35.27;101498.13;5033294;28;20029;-80
2022/04/10 05:37:51;;;;;;;5.00;1.90;;;;;;;14.85;35.58;101503.28;5034434;28;20481;-79
2022/04/10 05:40:17;;;;;;;4.18;1.85;;;;;;;15.03;35.42;101497.78;5034351;28;20027;-80
2022/04/10 05:42:46;;;;;;;5.63;2.30;;;;;;;14.92;35.50;101492.59;5032939;28;20052;-80
2022/04/10 05:45:14;;;;;;;9.90;2.35;;;;;;;14.96;35.54;101481.75;5033501;28;20120;-80
2022/04/10 05:47:41;;;;;;;5.90;2.00;;;;;;;15.04;35.48;101485.63;5032973;28;20029;-80
2022/04/10 05:50:08;;;;;;;3.42;1.50;;;;;;;15.06;35.57;101470.44;5032975;28;20037;-78
2022/04/10 05:52:38;;;;;;;9.40;2.40;;;;;;;15.03;35.88;101473.00;5032870;28;20087;-78
2022/04/10 05:55:06;;;;;;;8.13;1.80;;;;;;;15.14;35.89;101479.81;5034115;28;20029;-79
2022/04/10 05:57:31;;;;;;;3.95;1.50;;;;;;;15.22;35.98;101482.56;5034041;28;20451;-80
2022/04/10 05:59:57;;;;;;;11.70;2.72;;;;;;;15.29;36.02;101489.50;5034198;28;20040;-80
2022/04/10 06:02:22;;;;;;;6.00;1.83;;;;;;;15.41;35.86;101490.44;5033992;28;20033;-80
2022/04/10 06:04:48;;;;;;;7.90;1.80;;;;;;;15.22;37.01;101485.31;5033991;28;20025;-80
2022/04/10 06:07:14;;;;;;;5.15;1.48;;;;;;;15.39;36.64;101494.66;5033954;28;20033;-79
2022/04/10 06:09:39;;;;;;;5.07;2.20;;;;;;;15.58;36.16;101500.63;5032487;28;20049;-80
2022/04/10 06:12:06;;;;;;;3.25;1.25;;;;;;;15.68;36.02;101503.03;5032592;28;20064;-79
2022/04/10 06:14:32;;;;;;;5.00;1.67;;;;;;;15.66;36.39;101502.56;5033784;28;20033;-80
2022/04/10 06:16:57;;;;;;;5.55;1.50;;;;;;;15.76;36.29;101506.91;5033809;28;20021;-79
2022/04/10 06:19:23;;;;;;;8.80;2.70;;;;;;;15.69;36.45;101504.66;5032521;28;20022;-81
2022/04/10 06:21:48;;;;;;;5.45;2.20;;;;;;;15.77;36.44;101509.34;5033472;28;20037;-80
2022/04/10 06:24:14;;;;;;;5.25;2.15;;;;;;;15.89;36.55;101507.84;5032268;28;20026;-79
2022/04/10 06:26:41;;;;;;;7.57;1.90;;;;;;;15.89;36.39;101505.91;5022784;28;20473;-80
2022/04/10 06:29:06;;;;;;;10.10;2.20;;;;;;;15.88;36.34;101512.56;5013780;28;20029;-80
2022/04/10 06:31:32;;;;;;;5.88;1.67;;;;;;;15.98;36.27;101511.38;5012698;28;20536;-79
2022/04/10 06:33:57;;;;;;;10.55;2.25;;;;;;;16.11;36.24;101504.03;5012284;28;20037;-80
2022/04/10 06:36:23;;;;;;;8.60;2.13;;;;;;;16.14;36.27;101503.34;5012190;28;20033;-80
2022/04/10 06:38:49;;;;;;;6.07;1.65;;;;;;;16.31;36.15;101509.56;5012276;28;20109;-80
2022/04/10 06:41:15;;;;;;;7.35;2.47;;;;;;;16.28;36.23;101506.69;5012244;28;20183;-80
2022/04/10 06:43:42;;;;;;;4.93;1.52;;;;;;;16.47;36.15;101506.25;5013218;28;20046;-80
2022/04/10 06:46:08;;;;;;;3.67;1.48;;;;;;;16.49;36.33;101503.97;5013209;28;20389;-80
2022/04/10 06:48:35;;;;;;;5.78;1.52;;;;;;;16.57;36.14;101511.38;5013436;28;20038;-81
2022/04/10 06:51:02;;;;;;;5.38;1.55;;;;;;;16.63;36.11;101504.53;5013262;28;20036;-80
2022/04/10 06:53:28;;;;;;;11.38;3.40;;;;;;;16.68;35.94;101500.75;5012029;28;20117;-81
2022/04/10 06:55:54;;;;;;;7.30;1.50;;;;;;;16.75;35.86;101501.06;5012345;28;20125;-81
2022/04/10 06:58:22;;;;;;;12.75;2.22;;;;;;;16.74;35.83;101499.44;5013210;28;20105;-81
2022/04/10 07:00:48;;;;;;;5.85;1.58;;;;;;;16.84;35.86;101499.03;5012982;28;20026;-80
2022/04/10 07:03:14;;;;;;;6.55;1.20;;;;;;;16.96;35.71;101495.53;5012609;28;20029;-81
2022/04/10 07:05:40;;;;;;;7.45;2.25;;;;;;;16.93;35.82;101494.28;5013094;28;20029;-81
2022/04/10 07:08:07;;;;;;;3.33;1.50;;;;;;;17.11;35.86;101495.72;5011691;28;20025;-80
2022/04/10 07:10:33;;;;;;;9.77;1.80;;;;;;;17.28;35.66;101497.50;5011965;28;20451;-80
2022/04/10 07:12:58;;;;;;;8.68;3.08;;;;;;;17.28;35.69;101503.03;5011919;28;20018;-80
2022/04/10 07:15:24;;;;;;;7.15;2.38;;;;;;;17.48;35.30;101506.91;5011759;28;20026;-80
2022/04/10 07:17:50;;;;;;;7.85;1.20;;;;;;;17.66;35.33;101504.75;5011769;28;20381;-82
2022/04/10 07:20:15;;;;;;;6.72;1.60;;;;;;;17.74;35.20;101510.19;5011694;28;20477;-81
2022/04/10 07:25:25;;;;;;;8.05;2.55;;;;;;;17.84;34.98;101510.94;5012893;28;20041;-80
2022/04/10 07:27:51;;;;;;;9.15;2.22;;;;;;;17.97;35.07;101509.78;5011584;28;20030;-81
2022/04/10 07:30:16;;;;;;;9.02;2.15;;;;;;;17.85;35.24;101507.00;5012760;28;20117;-81
2022/04/10 07:32:42;;;;;;;8.50;2.35;;;;;;;17.88;35.11;101509.88;5011540;28;20062;-81
2022/04/10 07:35:08;;;;;;;6.40;1.27;;;;;;;18.09;34.70;101514.50;5011548;28;20029;-82
2022/04/10 07:37:33;;;;;;;5.10;1.60;;;;;;;18.13;34.50;101505.16;5013072;28;20032;-82
2022/04/10 07:39:59;;;;;;;5.03;1.83;;;;;;;18.01;34.60;101507.94;5012831;28;20026;-81
2022/04/10 07:42:26;;;;;;;8.50;1.50;;;;;;;18.02;34.83;101506.78;5012626;28;20129;-82
2022/04/10 07:44:55;;;;;;;3.65;1.42;;;;;;;18.09;34.54;101506.22;5011453;28;20034;-80
2022/04/10 07:47:26;;;;;;;12.50;2.53;;;;;;;18.12;34.38;101508.28;5012847;28;20041;-81
2022/04/10 07:49:55;;;;;;;14.80;3.10;;;;;;;18.00;34.24;101514.63;5012720;28;20030;-80
2022/04/10 07:52:21;;;;;;;4.50;1.52;;;;;;;18.12;33.67;101509.09;5016855;28;20034;-80
2022/04/10 07:54:48;;;;;;;6.47;1.60;;;;;;;18.18;33.55;101509.66;5031022;28;20094;-80
2022/04/10 07:57:14;;;;;;;14.07;2.15;;;;;;;18.18;33.16;101509.66;5030960;28;20026;-79
2022/04/10 07:59:39;;;;;;;7.13;1.67;;;;;;;18.10;33.08;101502.31;5030492;28;20051;-82
2022/04/10 08:02:06;;;;;;;5.88;1.42;;;;;;;18.22;32.89;101497.59;5019387;28;20371;-85
2022/04/10 08:04:31;;;;;;;6.60;1.60;;;;;;;18.19;32.75;101503.78;5021461;28;20029;-79
2022/04/10 08:06:57;;;;;;;14.38;3.30;;;;;;;18.27;32.94;101511.16;5020873;28;20030;-80
2022/04/10 08:09:23;;;;;;;12.15;2.40;;;;;;;18.19;32.81;101505.75;5021637;28;20048;-79
2022/04/10 08:11:50;;;;;;;12.48;2.67;;;;;;;18.42;32.46;101497.78;5016842;28;20025;-84
2022/04/10 08:14:16;;;;;;;7.90;1.67;;;;;;;18.17;32.59;101499.75;5019702;28;20022;-80
2022/04/10 08:16:42;;;;;;;8.45;1.40;;;;;;;18.39;32.53;101496.53;5024540;28;20116;-79
2022/04/10 08:19:08;;;;;;;4.38;1.38;;;;;;;18.58;32.06;101504.22;5026761;28;20380;-81
2022/04/10 08:21:34;;;;;;;8.77;2.00;;;;;;;18.73;31.79;101506.28;5023124;28;20035;-80
2022/04/10 08:23:59;;;;;;;8.68;1.88;;;;;;;18.62;32.00;101487.72;5026774;28;20451;-80
2022/04/10 08:26:25;;;;;;;9.32;1.33;;;;;;;18.64;32.11;101496.47;5022831;28;20021;-80
2022/04/10 08:28:51;;;;;;;4.00;1.40;;;;;;;18.67;31.98;101496.63;5025671;28;20056;-80
2022/04/10 08:31:17;;;;;;;6.70;1.85;;;;;;;19.01;31.51;101494.44;5023950;28;20034;-80
2022/04/10 08:33:42;;;;;;;6.05;1.88;;;;;;;18.76;31.84;101486.22;5024351;28;20199;-80
2022/04/10 08:36:08;;;;;;;11.18;2.50;;;;;;;18.64;32.24;101479.88;5025374;28;20029;-80
2022/04/10 08:38:34;;;;;;;7.70;1.63;;;;;;;18.88;31.94;101481.78;5024156;28;20111;-82
2022/04/10 08:41:01;;;;;;;11.75;2.95;;;;;;;19.10;31.60;101478.47;5022630;28;20087;-83
2022/04/10 08:43:28;;;;;;;9.70;1.42;;;;;;;19.22;31.67;101477.63;5020774;28;20054;-80
2022/04/10 08:45:57;;;;;;;10.10;2.25;;;;;;;19.03;31.63;101478.28;5022203;28;20492;-82
2022/04/10 08:48:26;;;;;;;7.65;2.17;;;;;;;19.08;31.54;101472.50;5025670;28;20021;-81
2022/04/10 08:50:57;;;;;;;4.60;1.50;;;;;;;19.21;31.36;101476.81;5024246;28;20022;-79
2022/04/10 08:53:24;;;;;;;4.43;1.60;;;;;;;19.31;31.38;101472.72;5025240;28;20021;-80
2022/04/10 08:55:51;;;;;;;10.80;3.17;;;;;;;19.34;31.50;101464.50;5021262;28;20025;-80
2022/04/10 08:58:18;;;;;;;6.97;1.92;;;;;;;19.46;31.30;101473.91;5023256;28;20473;-79
2022/04/10 09:00:44;;;;;;;7.57;2.20;;;;;;;19.34;31.47;101469.22;5026058;28;20018;-81
2022/04/10 09:03:10;;;;;;;6.95;1.55;;;;;;;19.32;31.42;101466.81;5026088;28;20018;-81
2022/04/10 09:05:37;;;;;;;7.82;2.35;;;;;;;19.11;31.73;101461.50;5026328;28;20101;-79
2022/04/10 09:08:18;;;;;;;4.70;1.27;;;;;;;19.04;31.72;101468.78;5024023;28;20053;-79
2022/04/10 09:11:06;;;;;;;20.42;4.65;;;;;;;19.21;31.60;101474.06;5025788;28;20030;-82
2022/04/10 09:13:51;;;;;;;3.30;1.10;;;;;;;19.13;31.38;101464.75;5021082;28;20477;-81
2022/04/10 09:16:24;;;;;;;3.88;1.80;;;;;;;19.03;31.74;101461.66;5022287;28;20025;-80
2022/04/10 09:18:58;;;;;;;16.30;2.95;;;;;;;18.97;31.99;101454.78;5022323;28;20455;-79
2022/04/10 09:21:26;;;;;;;5.28;2.00;;;;;;;19.04;31.90;101458.56;5027549;28;20030;-78
2022/04/10 09:24:04;;;;;;;14.43;3.20;;;;;;;18.67;32.31;101462.63;5021207;28;20030;-79
2022/04/10 09:26:50;;;;;;;6.60;1.90;;;;;;;18.64;32.24;101464.06;5049830;28;20039;-78
2022/04/10 09:29:20;;;;;;;7.60;1.80;;;;;;;19.00;31.64;101465.13;5020354;28;20499;-81
2022/04/10 09:31:46;;;;;;;;;;;;;;;18.81;31.93;101457.47;5023494;28;20037;-82
2022/04/10 09:34:20;;;;;;;9.75;2.65;;;;;;;18.91;31.99;101450.66;5021404;28;19922;-79
2022/04/10 09:36:47;;;;;;;9.13;2.25;;;;;;;18.69;32.44;101452.00;5025411;28;20032;-80
2022/04/10 09:39:15;;;;;;;6.28;1.70;;;;;;;18.37;33.01;101454.56;5020213;28;20046;-81
2022/04/10 09:41:43;;;;;;;9.32;2.60;;;;;;;18.71;32.43;101450.47;5018940;28;20047;-79
2022/04/10 09:44:13;;;;;;;12.10;3.60;;;;;;;18.79;32.30;101443.19;5015221;28;20126;-77
2022/04/10 09:46:40;;;;;;;4.85;1.77;;;;;;;18.85;32.09;101456.41;5014583;28;20058;-78
2022/04/10 09:49:17;;;;;;;5.22;1.52;;;;;;;19.00;32.15;101451.28;5015637;28;20970;-80
2022/04/10 09:51:58;;;;;;;7.20;2.25;;;;;;;18.84;32.41;101448.47;5015637;28;20083;-83
2022/04/10 09:54:24;;;;;;;8.27;1.80;;;;;;;18.67;32.82;101449.56;5017567;28;20083;-87
2022/04/10 09:56:50;;;;;;;13.93;2.72;;;;;;;18.68;32.66;101451.19;5029755;28;20034;-81
2022/04/10 09:59:20;;;;;;;7.90;1.65;;;;;;;18.90;32.45;101449.03;5032315;28;20038;-88
2022/04/10 10:01:46;;;;;;;13.50;2.35;;;;;;;18.94;32.45;101441.63;5033987;28;20087;-86
2022/04/10 10:04:12;;;;;;;12.00;3.20;;;;;;;19.01;32.50;101442.63;5034550;28;20053;-88
2022/04/10 10:06:38;;;;;;;8.63;2.45;;;;;;;19.09;32.77;101441.66;5032987;28;20025;-80
2022/04/10 10:09:06;;;;;;;9.95;2.25;;;;;;;19.02;32.77;101448.97;5016645;28;20025;-83
2022/04/10 10:11:32;;;;;;;13.38;3.15;;;;;;;19.07;32.68;101441.22;5021929;28;20025;-84
2022/04/10 10:13:59;;;;;;;9.63;2.58;;;;;;;19.33;32.40;101440.72;5017153;28;20025;-79
2022/04/10 10:16:25;;;;;;;10.07;3.17;;;;;;;19.38;32.53;101443.25;5020433;28;20679;-85
2022/04/10 10:18:51;;;;;;;7.20;2.58;;;;;;;19.08;33.08;101442.81;5034038;28;20029;-83
2022/04/10 10:21:17;;;;;;;6.60;3.53;;;;;;;19.10;33.12;101436.94;5020318;28;20046;-81
2022/04/10 10:23:48;;;;;;;8.02;2.55;;;;;;;19.12;33.26;101432.66;5032425;28;20029;-83
2022/04/10 10:26:47;;;;;;;15.45;3.28;;;;;;;19.18;33.38;101426.84;5027261;28;20029;-79
2022/04/10 10:29:31;;;;;;;7.90;2.55;;;;;;;19.45;33.10;101428.75;5021316;28;20033;-79
2022/04/10 10:32:17;;;;;;;10.57;3.20;;;;;;;19.18;33.76;101415.75;5018658;28;20049;-90
2022/04/10 10:34:44;;;;;;;15.18;9.63;;;;;;;19.13;33.92;101420.41;5028673;28;20026;-87
2022/04/10 10:37:14;;;;;;;14.73;4.25;;;;;;;19.47;33.53;101423.66;5016843;28;20033;-88
2022/04/10 10:39:46;;;;;;;9.25;2.65;;;;;;;19.34;33.83;101416.59;5019907;28;20365;-80
2022/04/10 10:42:13;;;;;;;16.83;3.67;;;;;;;19.11;34.35;101413.59;5021944;28;20537;-90
2022/04/10 10:44:39;;;;;;;16.50;5.65;;;;;;;19.32;33.99;101413.38;5027613;28;20030;-90
2022/04/10 10:47:05;;;;;;;20.00;12.05;;;;;;;19.25;34.10;101405.66;5017643;28;20034;-87
2022/04/10 10:49:52;;;;;;;17.98;6.30;;;;;;;19.52;33.54;101411.53;5016633;28;20087;-86
2022/04/10 10:52:18;;;;;;;10.73;4.78;;;;;;;19.49;33.69;101407.47;5021175;28;20121;-82
2022/04/10 10:54:51;;;;;;;14.65;4.55;;;;;;;19.71;33.43;101406.06;5016228;28;20113;-87
2022/04/10 10:57:41;;;;;;;10.65;2.22;;;;;;;19.44;34.41;101404.19;5017138;28;20072;-81
2022/04/10 11:00:22;;;;;;;;;;;;;;;19.03;35.07;101406.25;5019964;28;20032;-83
2022/04/10 11:02:52;;;;;;;9.13;2.40;;;;;;;19.48;34.27;101408.63;5014537;28;19917;-80
2022/04/10 11:05:24;;;;;;;13.23;2.95;;;;;;;19.40;34.56;101410.44;5009612;28;20095;-85
2022/04/10 11:08:08;;;;;;;6.75;2.25;;;;;;;19.38;34.64;101404.44;5017607;28;20491;-85
2022/04/10 11:11:03;;;;;;;7.70;2.58;;;;;;;19.21;34.88;101396.47;5015943;28;20029;-87
2022/04/10 11:13:47;;;;;;;12.27;2.92;;;;;;;19.37;34.84;101396.50;5014549;28;20520;-85
2022/04/10 11:16:14;;;;;;;10.45;2.15;;;;;;;19.38;34.58;101396.13;5012371;28;20095;-82
2022/04/10 11:18:50;;;;;;;20.33;4.68;;;;;;;19.09;35.03;101388.22;5019386;28;20033;-91
2022/04/10 11:21:21;;;;;;;7.97;2.40;;;;;;;19.41;34.48;101389.06;5022587;28;20095;-92
2022/04/10 11:23:48;;;;;;;13.02;3.05;;;;;;;19.64;34.14;101384.53;5015942;28;20050;-80
2022/04/10 11:26:15;;;;;;;10.57;3.05;;;;;;;19.78;34.02;101377.72;5029308;28;20113;-89
2022/04/10 11:29:02;;;;;;;13.15;3.28;;;;;;;19.78;33.96;101377.72;5026463;28;20393;-91